createdAt,value
2018-12-26T00:02:12.720Z,3.96
2018-12-26T00:05:02.613Z,3.90
2018-12-26T00:07:52.392Z,3.94
2018-12-26T00:10:42.194Z,3.98
2018-12-26T00:13:43.805Z,4.12
2018-12-26T00:16:15.423Z,4.12
2018-12-26T00:19:05.241Z,4.02
2018-12-26T00:22:06.598Z,3.99
2018-12-26T00:24:36.964Z,3.99
2018-12-26T00:27:07.378Z,4.06
2018-12-26T00:30:08.928Z,4.03
2018-12-26T00:32:52.697Z,3.95
2018-12-26T00:35:36.703Z,3.88
2018-12-26T00:38:07.424Z,3.88
2018-12-26T00:40:57.188Z,3.93
2018-12-26T00:43:46.978Z,3.88
2018-12-26T00:46:38.856Z,3.85
2018-12-26T00:49:20.498Z,3.87
2018-12-26T00:51:53.430Z,3.87
2018-12-26T00:54:43.199Z,3.82
2018-12-26T00:57:33.005Z,3.84
2018-12-26T01:00:22.776Z,3.86
2018-12-26T01:03:24.122Z,3.75
2018-12-26T01:05:54.603Z,3.75
2018-12-26T01:08:44.336Z,3.78
2018-12-26T01:11:34.126Z,3.82
2018-12-26T01:14:23.870Z,3.80
2018-12-26T01:17:24.994Z,3.79
2018-12-26T01:19:57.573Z,3.79
2018-12-26T01:22:47.334Z,3.87
2018-12-26T01:25:37.101Z,3.85
2018-12-26T01:28:26.909Z,3.82
2018-12-26T01:31:16.669Z,3.86
2018-12-26T01:34:06.463Z,3.84
2018-12-26T01:36:56.239Z,3.83
2018-12-26T01:39:46.043Z,3.80
2018-12-26T01:42:35.806Z,3.85
2018-12-26T01:45:25.609Z,3.77
2018-12-26T01:48:15.362Z,3.77
2018-12-26T01:51:05.167Z,3.72
2018-12-26T01:53:55.034Z,3.71
2018-12-26T01:56:44.833Z,3.74
2018-12-26T01:59:34.613Z,3.65
2018-12-26T02:02:24.393Z,3.66
2018-12-26T02:05:14.150Z,3.62
2018-12-26T02:08:03.931Z,3.69
2018-12-26T02:10:53.737Z,3.67
2018-12-26T02:13:43.571Z,3.62
2018-12-26T02:16:13.987Z,3.66
2018-12-26T02:19:03.777Z,3.76
2018-12-26T02:21:53.608Z,3.71
2018-12-26T02:24:24.043Z,3.73
2018-12-26T02:26:54.442Z,3.73
2018-12-26T02:29:36.338Z,3.71
2018-12-26T02:32:06.935Z,3.71
2018-12-26T02:34:56.745Z,3.73
2018-12-26T02:37:46.498Z,3.70
2018-12-26T02:40:36.310Z,3.78
2018-12-26T02:43:26.038Z,3.70
2018-12-26T02:48:58.913Z,3.71
2018-12-26T02:51:48.742Z,3.69
2018-12-26T02:54:38.571Z,3.65
2018-12-26T02:57:28.435Z,3.61
2018-12-26T03:00:18.289Z,3.69
2018-12-26T03:03:08.153Z,3.67
2018-12-26T03:05:57.954Z,3.64
2018-12-26T03:08:40.441Z,3.59
2018-12-26T03:11:13.176Z,3.59
2018-12-26T03:16:45.195Z,3.57
2018-12-26T03:19:34.943Z,3.58
2018-12-26T03:22:24.713Z,3.51
2018-12-26T03:25:14.556Z,3.46
2018-12-26T03:28:04.331Z,3.51
2018-12-26T03:30:54.096Z,3.54
2018-12-26T03:33:43.878Z,3.46
2018-12-26T03:36:45.338Z,3.50
2018-12-26T03:39:27.831Z,3.46
2018-12-26T03:41:58.289Z,3.46
2018-12-26T03:50:54.345Z,3.39
2018-12-26T03:53:44.133Z,3.38
2018-12-26T03:56:20.716Z,3.39
2018-12-26T03:59:10.531Z,3.41
2018-12-26T04:02:12.554Z,3.36
2018-12-26T04:04:43.483Z,3.36
2018-12-26T04:07:33.253Z,3.36
2018-12-26T04:10:03.628Z,3.37
2018-12-26T04:12:53.441Z,3.31
2018-12-26T04:15:43.202Z,3.31
2018-12-26T04:18:32.945Z,3.38
2018-12-26T04:21:22.719Z,3.38
2018-12-26T04:24:12.452Z,3.36
2018-12-26T04:27:02.318Z,3.28
2018-12-26T04:29:52.082Z,3.26
2018-12-26T04:32:42.765Z,3.26
2018-12-26T04:38:14.463Z,3.30
2018-12-26T04:40:44.857Z,3.31
2018-12-26T04:43:15.225Z,3.28
2018-12-26T04:46:05.020Z,3.32
2018-12-26T04:48:54.853Z,3.28
2018-12-26T04:51:44.652Z,3.31
2018-12-26T04:54:34.384Z,3.33
2018-12-26T04:57:24.958Z,3.36
2018-12-26T05:00:07.342Z,3.33
2018-12-26T05:02:37.717Z,3.33
2018-12-26T05:05:27.470Z,3.34
2018-12-26T05:08:17.251Z,3.30
2018-12-26T05:14:09.844Z,3.40
2018-12-26T05:16:59.654Z,3.30
2018-12-26T05:19:49.439Z,3.32
2018-12-26T05:22:39.195Z,3.31
2018-12-26T05:25:09.583Z,3.33
2018-12-26T05:27:59.370Z,3.34
2018-12-26T05:30:49.143Z,3.31
2018-12-26T05:33:38.876Z,3.32
2018-12-26T05:36:28.680Z,3.30
2018-12-26T05:39:18.429Z,3.40
2018-12-26T05:41:48.819Z,3.36
2018-12-26T05:44:38.654Z,3.32
2018-12-26T05:47:28.522Z,3.30
2018-12-26T05:50:18.319Z,3.35
2018-12-26T05:53:08.140Z,3.35
2018-12-26T05:55:57.929Z,3.29
2018-12-26T05:58:47.732Z,3.30
2018-12-26T06:01:37.496Z,3.32
2018-12-26T06:04:07.866Z,3.29
2018-12-26T06:06:57.683Z,3.33
2018-12-26T06:09:47.486Z,3.36
2018-12-26T06:12:37.287Z,3.37
2018-12-26T06:15:27.037Z,3.35
2018-12-26T06:18:16.839Z,3.34
2018-12-26T06:21:06.624Z,3.38
2018-12-26T06:23:37.071Z,3.33
2018-12-26T06:26:26.803Z,3.31
2018-12-26T06:29:16.598Z,3.31
2018-12-26T06:35:27.492Z,3.32
2018-12-26T06:38:17.285Z,3.36
2018-12-26T06:41:07.068Z,3.36
2018-12-26T06:43:56.841Z,3.39
2018-12-26T06:46:46.688Z,3.28
2018-12-26T06:49:36.556Z,3.31
2018-12-26T06:52:26.398Z,3.28
2018-12-26T06:55:16.206Z,3.27
2018-12-26T06:58:05.975Z,3.27
2018-12-26T07:00:55.778Z,3.28
2018-12-26T07:03:45.533Z,3.30
2018-12-26T07:06:35.352Z,3.30
2018-12-26T07:09:25.129Z,3.32
2018-12-26T07:12:15.012Z,3.33
2018-12-26T07:15:04.882Z,3.37
2018-12-26T07:17:54.653Z,3.32
2018-12-26T07:20:44.470Z,3.36
2018-12-26T07:23:34.238Z,3.37
2018-12-26T07:26:24.003Z,3.38
2018-12-26T07:29:13.777Z,3.43
2018-12-26T07:31:44.186Z,3.41
2018-12-26T07:34:41.972Z,3.42
2018-12-26T07:37:17.132Z,3.41
2018-12-26T07:40:06.894Z,3.38
2018-12-26T07:42:56.674Z,3.32
2018-12-26T07:45:46.457Z,3.41
2018-12-26T07:48:36.214Z,3.39
2018-12-26T07:51:26.001Z,3.43
2018-12-26T07:54:15.758Z,3.44
2018-12-26T07:57:05.563Z,3.48
2018-12-26T07:59:55.303Z,3.60
2018-12-26T08:02:45.090Z,3.48
2018-12-26T08:05:34.828Z,3.49
2018-12-26T08:08:24.615Z,3.56
2018-12-26T08:10:54.990Z,3.58
2018-12-26T08:13:44.819Z,3.70
2018-12-26T08:16:34.593Z,3.75
2018-12-26T08:19:24.383Z,3.78
2018-12-26T08:22:13.944Z,3.79
2018-12-26T08:25:03.720Z,3.80
2018-12-26T08:27:53.466Z,3.85
2018-12-26T08:30:43.303Z,3.92
2018-12-26T08:33:44.627Z,3.97
2018-12-26T08:36:16.618Z,3.97
2018-12-26T08:39:25.365Z,4.13
2018-12-26T08:42:26.611Z,4.04
2018-12-26T08:44:58.467Z,4.04
2018-12-26T08:50:23.348Z,4.25
2018-12-26T08:52:54.538Z,4.25
2018-12-26T08:55:44.301Z,4.25
2018-12-26T08:58:35.256Z,4.30
2018-12-26T09:01:16.939Z,4.56
2018-12-26T09:04:06.749Z,4.58
2018-12-26T09:06:56.571Z,4.58
2018-12-26T09:09:46.334Z,4.69
2018-12-26T09:12:36.082Z,4.61
2018-12-26T09:15:44.882Z,4.80
2018-12-26T09:18:35.597Z,4.80
2018-12-26T09:21:37.313Z,4.84
2018-12-26T09:24:20.798Z,4.95
2018-12-26T09:26:51.804Z,4.95
2018-12-26T09:29:41.571Z,4.91
2018-12-26T09:32:31.382Z,4.99
2018-12-26T09:35:21.123Z,5.00
2018-12-26T09:38:11.000Z,5.04
2018-12-26T09:41:00.742Z,5.12
2018-12-26T09:44:02.505Z,5.33
2018-12-26T09:46:32.878Z,5.33
2018-12-26T09:49:22.683Z,5.27
2018-12-26T09:51:53.034Z,5.39
2018-12-26T09:54:23.438Z,5.47
2018-12-26T09:57:13.203Z,5.41
2018-12-26T10:00:02.980Z,5.25
2018-12-26T10:02:52.772Z,5.46
2018-12-26T10:05:23.175Z,5.31
2018-12-26T10:08:12.935Z,5.32
2018-12-26T10:10:56.669Z,5.47
2018-12-26T10:13:28.741Z,5.47
2018-12-26T10:16:18.557Z,5.32
2018-12-26T10:19:08.355Z,5.37
2018-12-26T10:22:11.592Z,5.54
2018-12-26T10:24:42.896Z,5.54
2018-12-26T10:27:32.756Z,5.50
2018-12-26T10:30:22.540Z,5.60
2018-12-26T10:33:12.358Z,5.54
2018-12-26T10:42:09.226Z,5.42
2018-12-26T10:44:58.991Z,5.46
2018-12-26T10:47:48.805Z,5.43
2018-12-26T10:50:38.547Z,5.49
2018-12-26T10:53:28.346Z,5.54
2018-12-26T10:56:18.102Z,5.55
2018-12-26T10:59:10.322Z,5.59
2018-12-26T11:01:59.349Z,5.64
2018-12-26T11:04:49.121Z,5.60
2018-12-26T11:07:38.857Z,5.59
2018-12-26T11:10:28.675Z,5.53
2018-12-26T11:13:18.425Z,5.60
2018-12-26T11:16:08.215Z,5.73
2018-12-26T11:18:58.286Z,5.67
2018-12-26T11:21:29.154Z,5.68
2018-12-26T11:24:18.905Z,5.60
2018-12-26T11:27:08.710Z,5.74
2018-12-26T11:29:58.477Z,5.78
2018-12-26T11:32:48.242Z,5.78
2018-12-26T11:35:38.010Z,5.92
2018-12-26T11:38:27.791Z,5.98
2018-12-26T11:41:17.597Z,5.94
2018-12-26T11:44:07.435Z,5.97
2018-12-26T11:46:57.200Z,5.87
2018-12-26T11:49:47.004Z,5.91
2018-12-26T11:52:36.804Z,6.08
2018-12-26T11:55:26.561Z,6.10
2018-12-26T11:58:16.356Z,6.23
2018-12-26T12:00:48.392Z,6.25
2018-12-26T12:03:38.171Z,6.16
2018-12-26T12:06:08.623Z,6.06
2018-12-26T12:08:58.377Z,6.11
2018-12-26T12:14:47.859Z,5.98
2018-12-26T12:17:36.872Z,5.95
2018-12-26T12:20:06.810Z,6.02
2018-12-26T12:22:37.480Z,6.01
2018-12-26T12:25:27.231Z,6.01
2018-12-26T12:28:17.016Z,5.99
2018-12-26T12:31:06.812Z,5.84
2018-12-26T12:33:56.582Z,5.92
2018-12-26T12:37:08.062Z,5.93
2018-12-26T12:39:57.853Z,5.80
2018-12-26T12:42:48.183Z,5.83
2018-12-26T12:45:19.613Z,5.97
2018-12-26T12:48:09.409Z,5.90
2018-12-26T12:54:14.225Z,5.81
2018-12-26T12:57:08.845Z,5.82
2018-12-26T13:00:00.921Z,5.78
2018-12-26T13:02:32.936Z,5.70
2018-12-26T13:05:22.715Z,5.74
2018-12-26T13:08:13.303Z,5.76
2018-12-26T13:10:55.580Z,5.84
2018-12-26T13:13:45.362Z,5.89
2018-12-26T13:16:35.182Z,5.68
2018-12-26T13:19:24.943Z,5.65
2018-12-26T13:22:14.728Z,5.72
2018-12-26T13:25:04.641Z,5.74
2018-12-26T13:27:54.458Z,5.69
2018-12-26T13:30:24.868Z,5.64
2018-12-26T13:33:14.654Z,5.63
2018-12-26T13:39:08.250Z,5.65
2018-12-26T13:41:58.003Z,5.68
2018-12-26T13:44:47.843Z,5.67
2018-12-26T13:47:37.764Z,5.67
2018-12-26T13:50:27.523Z,5.79
2018-12-26T13:53:17.278Z,5.71
2018-12-26T13:56:07.081Z,5.63
2018-12-26T13:58:56.857Z,5.62
2018-12-26T14:04:36.003Z,5.69
2018-12-26T14:10:28.922Z,5.99
2018-12-26T14:13:18.685Z,6.27
2018-12-26T14:16:08.496Z,6.34
2018-12-26T14:18:58.263Z,6.18
2018-12-26T14:21:48.117Z,6.44
2018-12-26T14:24:37.958Z,6.27
2018-12-26T14:27:29.549Z,6.74
2018-12-26T14:30:12.243Z,6.31
2018-12-26T14:33:02.124Z,6.41
2018-12-26T14:36:10.907Z,6.14
2018-12-26T14:39:00.711Z,5.81
2018-12-26T14:41:50.483Z,5.67
2018-12-26T14:44:40.344Z,5.56
2018-12-26T14:47:10.728Z,5.40
2018-12-26T14:50:00.488Z,5.36
2018-12-26T14:52:50.256Z,5.22
2018-12-26T14:55:40.019Z,5.00
2018-12-26T14:58:10.479Z,4.96
2018-12-26T15:01:00.220Z,5.06
2018-12-26T15:03:50.018Z,5.02
2018-12-26T15:06:39.764Z,4.91
2018-12-26T15:09:11.777Z,4.82
2018-12-26T15:12:20.534Z,4.62
2018-12-26T15:15:10.308Z,4.62
2018-12-26T15:18:19.080Z,4.60
2018-12-26T15:21:27.767Z,4.60
2018-12-26T15:24:17.557Z,4.51
2018-12-26T15:27:07.362Z,4.38
2018-12-26T15:29:49.394Z,4.30
2018-12-26T15:32:31.987Z,4.24
2018-12-26T15:35:03.472Z,4.24
2018-12-26T15:38:04.178Z,4.21
2018-12-26T15:40:35.003Z,4.27
2018-12-26T15:43:36.332Z,4.11
2018-12-26T15:46:19.347Z,4.08
2018-12-26T15:48:50.349Z,4.08
2018-12-26T15:51:40.137Z,3.99
2018-12-26T15:54:10.528Z,4.00
2018-12-26T15:59:58.510Z,4.00
2018-12-26T16:02:48.294Z,3.90
2018-12-26T16:05:38.084Z,3.91
2018-12-26T16:08:27.868Z,3.93
2018-12-26T16:11:18.029Z,3.86
2018-12-26T16:14:00.637Z,3.95
2018-12-26T16:16:43.511Z,3.86
2018-12-26T16:19:16.449Z,3.86
2018-12-26T16:22:06.241Z,3.82
2018-12-26T16:24:56.020Z,3.76
2018-12-26T16:27:46.205Z,3.67
2018-12-26T16:30:35.982Z,3.79
2018-12-26T16:33:25.752Z,3.75
2018-12-26T16:36:15.561Z,3.76
2018-12-26T16:42:26.155Z,3.84
2018-12-26T16:45:15.931Z,3.87
2018-12-26T16:47:46.334Z,4.00
2018-12-26T16:50:35.740Z,4.08
2018-12-26T16:53:25.540Z,4.08
2018-12-26T16:56:34.311Z,4.21
2018-12-26T16:59:24.128Z,4.21
2018-12-26T17:02:13.920Z,4.35
2018-12-26T17:05:15.516Z,4.29
2018-12-26T17:07:47.561Z,4.29
2018-12-26T17:10:48.760Z,4.35
2018-12-26T17:13:19.772Z,4.35
2018-12-26T17:16:09.557Z,4.26
2018-12-26T17:19:10.879Z,4.22
2018-12-26T17:21:42.790Z,4.22
2018-12-26T17:24:51.554Z,4.36
2018-12-26T17:27:41.351Z,4.36
2018-12-26T17:30:31.109Z,4.27
2018-12-26T17:33:32.980Z,4.31
2018-12-26T17:36:05.728Z,4.31
2018-12-26T17:39:07.187Z,4.36
2018-12-26T17:41:50.872Z,4.34
2018-12-26T17:44:22.875Z,4.34
2018-12-26T17:47:24.405Z,4.32
2018-12-26T17:50:12.283Z,4.30
2018-12-26T17:52:54.525Z,4.26
2018-12-26T17:55:37.788Z,4.25
2018-12-26T17:58:10.431Z,4.25
2018-12-26T18:01:22.888Z,4.33
2018-12-26T18:04:12.672Z,4.37
2018-12-26T18:07:02.462Z,4.42
2018-12-26T18:10:04.352Z,4.44
2018-12-26T18:12:35.878Z,4.44
2018-12-26T18:15:37.646Z,4.46
2018-12-26T18:18:08.042Z,4.46
2018-12-26T18:21:10.560Z,4.59
2018-12-26T18:23:53.717Z,4.58
2018-12-26T18:26:25.945Z,4.58
2018-12-26T18:29:34.757Z,4.69
2018-12-26T18:32:36.197Z,4.67
2018-12-26T18:35:19.143Z,4.68
2018-12-26T18:37:50.083Z,4.68
2018-12-26T18:40:39.839Z,4.70
2018-12-26T18:43:29.617Z,4.62
2018-12-26T18:46:19.387Z,4.71
2018-12-26T18:49:20.521Z,4.76
2018-12-26T18:51:50.895Z,4.76
2018-12-26T18:54:40.673Z,4.78
2018-12-26T18:57:11.071Z,4.75
2018-12-26T18:59:54.616Z,4.76
2018-12-26T19:02:26.129Z,4.76
2018-12-26T19:05:27.274Z,4.79
2018-12-26T19:08:10.504Z,4.78
2018-12-26T19:10:52.942Z,4.78
2018-12-26T19:13:23.312Z,4.78
2018-12-26T19:16:13.152Z,4.78
2018-12-26T19:19:14.992Z,4.89
2018-12-26T19:21:47.315Z,4.89
2018-12-26T19:24:48.583Z,4.82
2018-12-26T19:27:19.251Z,4.82
2018-12-26T19:30:20.821Z,4.82
2018-12-26T19:33:05.034Z,4.82
2018-12-26T19:35:36.272Z,4.82
2018-12-26T19:38:26.046Z,4.88
2018-12-26T19:41:15.827Z,4.90
2018-12-26T19:44:17.464Z,4.89
2018-12-26T19:46:59.840Z,4.89
2018-12-26T19:49:45.626Z,4.80
2018-12-26T19:52:28.714Z,4.81
2018-12-26T19:54:59.492Z,4.81
2018-12-26T19:57:49.268Z,4.89
2018-12-26T20:00:51.165Z,4.76
2018-12-26T20:03:23.427Z,4.76
2018-12-26T20:06:24.757Z,4.70
2018-12-26T20:08:56.526Z,4.70
2018-12-26T20:11:46.360Z,4.67
2018-12-26T20:14:36.205Z,4.76
2018-12-26T20:17:25.971Z,4.66
2018-12-26T20:20:15.790Z,4.76
2018-12-26T20:23:24.564Z,4.81
2018-12-26T20:26:26.462Z,4.70
2018-12-26T20:28:57.574Z,4.70
2018-12-26T20:31:47.441Z,4.77
2018-12-26T20:34:37.265Z,4.77
2018-12-26T20:37:27.049Z,4.71
2018-12-26T20:40:16.895Z,4.67
2018-12-26T20:43:06.670Z,4.63
2018-12-26T20:46:07.738Z,4.57
2018-12-26T20:48:51.000Z,4.54
2018-12-26T20:51:34.020Z,4.54
2018-12-26T20:54:17.428Z,4.55
2018-12-26T20:56:49.698Z,4.55
2018-12-26T20:59:51.774Z,4.38
2018-12-26T21:02:33.979Z,4.34
2018-12-26T21:05:04.911Z,4.34
2018-12-26T21:08:06.263Z,4.29
2018-12-26T21:10:47.948Z,4.20
2018-12-26T21:13:20.804Z,4.20
2018-12-26T21:16:22.131Z,4.17
2018-12-26T21:18:54.840Z,4.17
2018-12-26T21:21:44.661Z,4.15
2018-12-26T21:24:34.466Z,4.13
2018-12-26T21:27:24.286Z,4.20
2018-12-26T21:30:25.639Z,4.31
2018-12-26T21:32:56.070Z,4.31
2018-12-26T21:36:04.873Z,4.28
2018-12-26T21:39:05.747Z,4.31
2018-12-26T21:41:36.954Z,4.31
2018-12-26T21:44:26.766Z,4.35
2018-12-26T21:47:16.796Z,4.33
2018-12-26T21:50:07.827Z,4.34
2018-12-26T21:52:57.618Z,4.40
2018-12-26T21:55:59.018Z,4.39
2018-12-26T21:58:30.745Z,4.39
2018-12-26T22:01:31.985Z,4.37
2018-12-26T22:04:17.287Z,4.45
2018-12-26T22:06:49.949Z,4.45
2018-12-26T22:09:39.750Z,4.45
2018-12-26T22:12:29.546Z,4.45
2018-12-26T22:15:30.639Z,4.40
2018-12-26T22:18:14.006Z,4.47
2018-12-26T22:20:44.771Z,4.47
2018-12-26T22:23:34.579Z,4.50
2018-12-26T22:26:43.183Z,4.57
2018-12-26T22:29:10.075Z,4.57
2018-12-26T22:31:59.812Z,4.52
2018-12-26T22:34:49.599Z,4.60
2018-12-26T22:37:39.355Z,4.62
2018-12-26T22:40:29.159Z,4.56
2018-12-26T22:43:20.192Z,4.62
2018-12-26T22:46:10.001Z,4.62
2018-12-26T22:49:00.760Z,4.57
2018-12-26T22:51:43.963Z,4.66
2018-12-26T22:54:28.500Z,4.85
2018-12-26T22:57:12.865Z,4.84
2018-12-26T22:59:45.272Z,4.84
2018-12-26T23:02:46.272Z,4.82
2018-12-26T23:05:28.699Z,4.75
2018-12-26T23:08:12.070Z,4.72
2018-12-26T23:10:55.264Z,4.70
2018-12-26T23:13:26.386Z,4.70
2018-12-26T23:16:35.195Z,4.70
2018-12-26T23:19:36.493Z,4.68
2018-12-26T23:22:19.330Z,4.74
2018-12-26T23:25:02.190Z,4.73
2018-12-26T23:27:44.361Z,4.71
2018-12-26T23:30:29.330Z,4.70
2018-12-26T23:33:00.300Z,4.70
2018-12-26T23:35:50.085Z,4.68
2018-12-26T23:38:51.980Z,4.57
2018-12-26T23:41:34.902Z,4.60
2018-12-26T23:44:18.621Z,4.58
2018-12-26T23:46:49.534Z,4.58
2018-12-26T23:49:51.067Z,4.65
2018-12-26T23:52:23.365Z,4.65
2018-12-26T23:55:13.158Z,4.63
2018-12-26T23:58:15.159Z,4.66
